sensor_id;sensor_type;location;lat;lon;timestamp;P1;durP1;ratioP1;P2;durP2;ratioP2
36443;SDS011;24692;45.642;13.806;2024-03-17T00:00:19;18.17;;;12.30;;
36443;SDS011;24692;45.642;13.806;2024-03-17T00:02:45;17.53;;;11.70;;
36443;SDS011;24692;45.642;13.806;2024-03-17T00:05:11;21.77;;;12.17;;
36443;SDS011;24692;45.642;13.806;2024-03-17T00:07:38;16.73;;;11.90;;
36443;SDS011;24692;45.642;13.806;2024-03-17T00:10:04;20.27;;;11.73;;
36443;SDS011;24692;45.642;13.806;2024-03-17T00:12:30;19.80;;;12.47;;
36443;SDS011;24692;45.642;13.806;2024-03-17T00:14:55;19.20;;;12.60;;
36443;SDS011;24692;45.642;13.806;2024-03-17T00:17:21;16.13;;;11.20;;
36443;SDS011;24692;45.642;13.806;2024-03-17T00:19:48;20.77;;;12.83;;
36443;SDS011;24692;45.642;13.806;2024-03-17T00:22:13;20.97;;;13.13;;
36443;SDS011;24692;45.642;13.806;2024-03-17T00:24:40;18.10;;;12.60;;
36443;SDS011;24692;45.642;13.806;2024-03-17T00:27:06;20.57;;;12.93;;
36443;SDS011;24692;45.642;13.806;2024-03-17T00:29:31;18.53;;;12.10;;
36443;SDS011;24692;45.642;13.806;2024-03-17T00:31:57;24.23;;;12.93;;
36443;SDS011;24692;45.642;13.806;2024-03-17T00:34:23;17.63;;;11.97;;
36443;SDS011;24692;45.642;13.806;2024-03-17T00:36:49;19.17;;;11.30;;
36443;SDS011;24692;45.642;13.806;2024-03-17T00:39:16;16.97;;;11.90;;
36443;SDS011;24692;45.642;13.806;2024-03-17T00:41:43;20.50;;;13.00;;
36443;SDS011;24692;45.642;13.806;2024-03-17T00:44:09;18.83;;;13.13;;
36443;SDS011;24692;45.642;13.806;2024-03-17T00:46:34;21.10;;;12.27;;
36443;SDS011;24692;45.642;13.806;2024-03-17T00:49:00;23.33;;;14.00;;
36443;SDS011;24692;45.642;13.806;2024-03-17T00:51:26;20.47;;;13.23;;
36443;SDS011;24692;45.642;13.806;2024-03-17T00:53:51;19.77;;;12.93;;
36443;SDS011;24692;45.642;13.806;2024-03-17T00:56:18;23.00;;;14.23;;
36443;SDS011;24692;45.642;13.806;2024-03-17T00:58:43;23.23;;;13.27;;
36443;SDS011;24692;45.642;13.806;2024-03-17T01:01:12;21.27;;;14.13;;
36443;SDS011;24692;45.642;13.806;2024-03-17T01:03:38;26.67;;;15.97;;
36443;SDS011;24692;45.642;13.806;2024-03-17T01:06:04;23.30;;;15.23;;
36443;SDS011;24692;45.642;13.806;2024-03-17T01:08:30;21.97;;;15.00;;
36443;SDS011;24692;45.642;13.806;2024-03-17T01:10:56;27.20;;;15.47;;
36443;SDS011;24692;45.642;13.806;2024-03-17T01:13:21;26.60;;;17.03;;
36443;SDS011;24692;45.642;13.806;2024-03-17T01:15:50;26.00;;;16.47;;
36443;SDS011;24692;45.642;13.806;2024-03-17T01:18:17;24.90;;;17.17;;
36443;SDS011;24692;45.642;13.806;2024-03-17T01:20:43;24.97;;;16.07;;
36443;SDS011;24692;45.642;13.806;2024-03-17T01:23:09;23.83;;;15.50;;
36443;SDS011;24692;45.642;13.806;2024-03-17T01:25:35;26.07;;;16.27;;
36443;SDS011;24692;45.642;13.806;2024-03-17T01:28:02;25.40;;;15.50;;
36443;SDS011;24692;45.642;13.806;2024-03-17T01:30:29;26.90;;;16.37;;
36443;SDS011;24692;45.642;13.806;2024-03-17T01:32:55;27.03;;;18.20;;
36443;SDS011;24692;45.642;13.806;2024-03-17T01:35:20;30.10;;;18.10;;
36443;SDS011;24692;45.642;13.806;2024-03-17T01:37:46;29.10;;;18.80;;
36443;SDS011;24692;45.642;13.806;2024-03-17T01:40:12;28.20;;;18.27;;
36443;SDS011;24692;45.642;13.806;2024-03-17T01:42:38;29.30;;;18.03;;
36443;SDS011;24692;45.642;13.806;2024-03-17T01:47:50;30.07;;;20.53;;
36443;SDS011;24692;45.642;13.806;2024-03-17T01:50:16;35.57;;;20.67;;
36443;SDS011;24692;45.642;13.806;2024-03-17T01:52:46;31.47;;;20.20;;
36443;SDS011;24692;45.642;13.806;2024-03-17T01:55:12;36.03;;;20.97;;
36443;SDS011;24692;45.642;13.806;2024-03-17T01:57:38;30.70;;;21.10;;
36443;SDS011;24692;45.642;13.806;2024-03-17T02:00:05;32.43;;;20.67;;
36443;SDS011;24692;45.642;13.806;2024-03-17T02:02:33;32.90;;;20.90;;
36443;SDS011;24692;45.642;13.806;2024-03-17T02:04:59;37.50;;;22.07;;
36443;SDS011;24692;45.642;13.806;2024-03-17T02:07:25;32.13;;;20.47;;
36443;SDS011;24692;45.642;13.806;2024-03-17T02:09:50;35.60;;;21.80;;
36443;SDS011;24692;45.642;13.806;2024-03-17T02:12:16;34.13;;;21.13;;
36443;SDS011;24692;45.642;13.806;2024-03-17T02:14:42;32.87;;;22.10;;
36443;SDS011;24692;45.642;13.806;2024-03-17T02:17:07;36.77;;;21.57;;
36443;SDS011;24692;45.642;13.806;2024-03-17T02:19:33;34.07;;;21.70;;
36443;SDS011;24692;45.642;13.806;2024-03-17T02:21:59;34.27;;;21.70;;
36443;SDS011;24692;45.642;13.806;2024-03-17T02:24:25;37.10;;;23.10;;
36443;SDS011;24692;45.642;13.806;2024-03-17T02:26:51;39.73;;;23.13;;
36443;SDS011;24692;45.642;13.806;2024-03-17T02:29:17;34.37;;;22.03;;
36443;SDS011;24692;45.642;13.806;2024-03-17T02:31:44;40.00;;;23.83;;
36443;SDS011;24692;45.642;13.806;2024-03-17T02:34:11;37.40;;;24.23;;
36443;SDS011;24692;45.642;13.806;2024-03-17T02:36:37;35.20;;;22.73;;
36443;SDS011;24692;45.642;13.806;2024-03-17T02:39:04;40.63;;;23.47;;
36443;SDS011;24692;45.642;13.806;2024-03-17T02:41:49;36.67;;;23.37;;
36443;SDS011;24692;45.642;13.806;2024-03-17T02:44:17;36.87;;;24.13;;
36443;SDS011;24692;45.642;13.806;2024-03-17T02:46:43;34.17;;;23.40;;
36443;SDS011;24692;45.642;13.806;2024-03-17T02:49:09;36.83;;;23.50;;
36443;SDS011;24692;45.642;13.806;2024-03-17T02:51:39;38.73;;;24.20;;
36443;SDS011;24692;45.642;13.806;2024-03-17T02:54:14;40.90;;;24.20;;
36443;SDS011;24692;45.642;13.806;2024-03-17T02:56:41;39.30;;;24.33;;
36443;SDS011;24692;45.642;13.806;2024-03-17T02:59:07;40.70;;;24.53;;
36443;SDS011;24692;45.642;13.806;2024-03-17T03:01:33;39.87;;;25.43;;
36443;SDS011;24692;45.642;13.806;2024-03-17T03:04:02;37.90;;;24.33;;
36443;SDS011;24692;45.642;13.806;2024-03-17T03:06:29;34.30;;;23.40;;
36443;SDS011;24692;45.642;13.806;2024-03-17T03:08:55;32.63;;;22.10;;
36443;SDS011;24692;45.642;13.806;2024-03-17T03:11:22;36.40;;;22.50;;
36443;SDS011;24692;45.642;13.806;2024-03-17T03:13:47;33.23;;;22.97;;
36443;SDS011;24692;45.642;13.806;2024-03-17T03:16:13;37.37;;;22.93;;
36443;SDS011;24692;45.642;13.806;2024-03-17T03:18:39;33.30;;;22.90;;
36443;SDS011;24692;45.642;13.806;2024-03-17T03:21:05;35.37;;;23.27;;
36443;SDS011;24692;45.642;13.806;2024-03-17T03:23:31;38.07;;;24.70;;
36443;SDS011;24692;45.642;13.806;2024-03-17T03:25:58;38.37;;;24.27;;
36443;SDS011;24692;45.642;13.806;2024-03-17T03:28:25;35.80;;;23.17;;
36443;SDS011;24692;45.642;13.806;2024-03-17T03:30:51;40.43;;;24.50;;
36443;SDS011;24692;45.642;13.806;2024-03-17T03:33:20;39.77;;;24.63;;
36443;SDS011;24692;45.642;13.806;2024-03-17T03:35:47;38.30;;;24.23;;
36443;SDS011;24692;45.642;13.806;2024-03-17T03:38:16;38.27;;;24.37;;
36443;SDS011;24692;45.642;13.806;2024-03-17T03:40:43;39.70;;;24.47;;
36443;SDS011;24692;45.642;13.806;2024-03-17T03:43:09;38.60;;;23.67;;
36443;SDS011;24692;45.642;13.806;2024-03-17T03:45:35;37.93;;;24.30;;
36443;SDS011;24692;45.642;13.806;2024-03-17T03:48:02;40.23;;;26.27;;
36443;SDS011;24692;45.642;13.806;2024-03-17T03:50:28;38.37;;;24.43;;
36443;SDS011;24692;45.642;13.806;2024-03-17T03:52:54;40.17;;;25.20;;
36443;SDS011;24692;45.642;13.806;2024-03-17T03:55:20;40.27;;;24.03;;
36443;SDS011;24692;45.642;13.806;2024-03-17T03:57:45;35.20;;;24.17;;
36443;SDS011;24692;45.642;13.806;2024-03-17T04:00:13;35.00;;;23.70;;
36443;SDS011;24692;45.642;13.806;2024-03-17T04:02:40;39.33;;;24.57;;
36443;SDS011;24692;45.642;13.806;2024-03-17T04:05:07;36.10;;;24.03;;
36443;SDS011;24692;45.642;13.806;2024-03-17T04:07:33;40.80;;;25.63;;
36443;SDS011;24692;45.642;13.806;2024-03-17T04:09:59;42.87;;;26.20;;
36443;SDS011;24692;45.642;13.806;2024-03-17T04:12:25;39.40;;;26.43;;
36443;SDS011;24692;45.642;13.806;2024-03-17T04:14:52;41.50;;;26.10;;
36443;SDS011;24692;45.642;13.806;2024-03-17T04:17:19;47.40;;;27.27;;
36443;SDS011;24692;45.642;13.806;2024-03-17T04:19:46;45.63;;;27.07;;
36443;SDS011;24692;45.642;13.806;2024-03-17T04:22:14;41.70;;;26.43;;
36443;SDS011;24692;45.642;13.806;2024-03-17T04:24:41;43.03;;;27.57;;
36443;SDS011;24692;45.642;13.806;2024-03-17T04:27:10;39.73;;;26.23;;
36443;SDS011;24692;45.642;13.806;2024-03-17T04:29:36;40.13;;;25.27;;
36443;SDS011;24692;45.642;13.806;2024-03-17T04:32:02;42.47;;;26.17;;
36443;SDS011;24692;45.642;13.806;2024-03-17T04:34:30;42.57;;;27.17;;
36443;SDS011;24692;45.642;13.806;2024-03-17T04:36:56;39.43;;;25.13;;
36443;SDS011;24692;45.642;13.806;2024-03-17T04:39:22;41.33;;;25.27;;
36443;SDS011;24692;45.642;13.806;2024-03-17T04:41:48;38.27;;;25.23;;
36443;SDS011;24692;45.642;13.806;2024-03-17T04:44:14;42.37;;;26.17;;
36443;SDS011;24692;45.642;13.806;2024-03-17T04:46:40;41.80;;;25.30;;
36443;SDS011;24692;45.642;13.806;2024-03-17T04:49:06;44.87;;;26.90;;
36443;SDS011;24692;45.642;13.806;2024-03-17T04:51:33;41.80;;;26.97;;
36443;SDS011;24692;45.642;13.806;2024-03-17T04:53:59;45.77;;;27.30;;
36443;SDS011;24692;45.642;13.806;2024-03-17T04:56:25;41.90;;;27.13;;
36443;SDS011;24692;45.642;13.806;2024-03-17T04:58:51;42.83;;;27.57;;
36443;SDS011;24692;45.642;13.806;2024-03-17T05:01:16;43.27;;;26.03;;
36443;SDS011;24692;45.642;13.806;2024-03-17T05:03:42;42.37;;;26.17;;
36443;SDS011;24692;45.642;13.806;2024-03-17T05:06:08;44.17;;;26.83;;
36443;SDS011;24692;45.642;13.806;2024-03-17T05:08:33;37.37;;;25.13;;
36443;SDS011;24692;45.642;13.806;2024-03-17T05:11:00;37.00;;;24.97;;
36443;SDS011;24692;45.642;13.806;2024-03-17T05:13:29;39.93;;;26.20;;
36443;SDS011;24692;45.642;13.806;2024-03-17T05:15:56;36.83;;;24.90;;
36443;SDS011;24692;45.642;13.806;2024-03-17T05:18:22;39.40;;;25.13;;
36443;SDS011;24692;45.642;13.806;2024-03-17T05:21:00;41.73;;;25.53;;
36443;SDS011;24692;45.642;13.806;2024-03-17T05:23:27;44.87;;;27.20;;
36443;SDS011;24692;45.642;13.806;2024-03-17T05:25:53;40.13;;;25.83;;
36443;SDS011;24692;45.642;13.806;2024-03-17T05:28:20;40.33;;;26.30;;
36443;SDS011;24692;45.642;13.806;2024-03-17T05:30:45;44.90;;;27.53;;
36443;SDS011;24692;45.642;13.806;2024-03-17T05:33:11;38.97;;;27.07;;
36443;SDS011;24692;45.642;13.806;2024-03-17T05:35:37;42.73;;;26.83;;
36443;SDS011;24692;45.642;13.806;2024-03-17T05:38:03;40.20;;;26.17;;
36443;SDS011;24692;45.642;13.806;2024-03-17T05:40:29;40.07;;;26.83;;
36443;SDS011;24692;45.642;13.806;2024-03-17T05:42:55;42.70;;;27.83;;
36443;SDS011;24692;45.642;13.806;2024-03-17T05:45:21;44.83;;;27.63;;
36443;SDS011;24692;45.642;13.806;2024-03-17T05:47:49;43.37;;;27.43;;
36443;SDS011;24692;45.642;13.806;2024-03-17T05:50:15;44.77;;;28.93;;
36443;SDS011;24692;45.642;13.806;2024-03-17T05:52:41;41.30;;;27.27;;
36443;SDS011;24692;45.642;13.806;2024-03-17T05:55:07;37.83;;;26.57;;
36443;SDS011;24692;45.642;13.806;2024-03-17T05:57:32;39.43;;;26.07;;
36443;SDS011;24692;45.642;13.806;2024-03-17T05:59:58;42.73;;;26.83;;
36443;SDS011;24692;45.642;13.806;2024-03-17T06:02:24;37.87;;;25.73;;
36443;SDS011;24692;45.642;13.806;2024-03-17T06:04:49;40.73;;;27.03;;
36443;SDS011;24692;45.642;13.806;2024-03-17T06:07:15;47.27;;;27.13;;
36443;SDS011;24692;45.642;13.806;2024-03-17T06:09:40;36.30;;;25.60;;
36443;SDS011;24692;45.642;13.806;2024-03-17T06:12:06;38.63;;;25.57;;
36443;SDS011;24692;45.642;13.806;2024-03-17T06:14:32;38.57;;;26.57;;
36443;SDS011;24692;45.642;13.806;2024-03-17T06:16:59;44.00;;;27.33;;
36443;SDS011;24692;45.642;13.806;2024-03-17T06:19:24;37.83;;;25.50;;
36443;SDS011;24692;45.642;13.806;2024-03-17T06:21:50;37.23;;;24.57;;
36443;SDS011;24692;45.642;13.806;2024-03-17T06:24:16;34.33;;;24.53;;
36443;SDS011;24692;45.642;13.806;2024-03-17T06:26:42;37.03;;;23.53;;
36443;SDS011;24692;45.642;13.806;2024-03-17T06:29:07;35.13;;;23.50;;
36443;SDS011;24692;45.642;13.806;2024-03-17T06:31:33;35.87;;;24.07;;
36443;SDS011;24692;45.642;13.806;2024-03-17T06:33:59;37.17;;;24.70;;
36443;SDS011;24692;45.642;13.806;2024-03-17T06:36:24;33.70;;;23.60;;
36443;SDS011;24692;45.642;13.806;2024-03-17T06:38:50;35.30;;;23.43;;
36443;SDS011;24692;45.642;13.806;2024-03-17T06:41:16;39.97;;;24.40;;
36443;SDS011;24692;45.642;13.806;2024-03-17T06:43:42;32.17;;;22.63;;
36443;SDS011;24692;45.642;13.806;2024-03-17T06:46:08;31.27;;;22.17;;
36443;SDS011;24692;45.642;13.806;2024-03-17T06:48:34;38.63;;;24.03;;
36443;SDS011;24692;45.642;13.806;2024-03-17T06:51:00;35.03;;;22.47;;
36443;SDS011;24692;45.642;13.806;2024-03-17T06:53:26;31.50;;;23.43;;
36443;SDS011;24692;45.642;13.806;2024-03-17T06:55:52;36.17;;;23.97;;
36443;SDS011;24692;45.642;13.806;2024-03-17T06:58:22;34.57;;;23.17;;
36443;SDS011;24692;45.642;13.806;2024-03-17T07:00:53;32.83;;;23.53;;
36443;SDS011;24692;45.642;13.806;2024-03-17T07:03:18;37.73;;;24.57;;
36443;SDS011;24692;45.642;13.806;2024-03-17T07:05:50;31.60;;;22.50;;
36443;SDS011;24692;45.642;13.806;2024-03-17T07:08:20;34.47;;;23.43;;
36443;SDS011;24692;45.642;13.806;2024-03-17T07:11:02;30.70;;;23.00;;
36443;SDS011;24692;45.642;13.806;2024-03-17T07:13:34;29.40;;;22.80;;
36443;SDS011;24692;45.642;13.806;2024-03-17T07:16:02;28.07;;;21.57;;
36443;SDS011;24692;45.642;13.806;2024-03-17T07:18:30;28.80;;;22.17;;
36443;SDS011;24692;45.642;13.806;2024-03-17T07:21:00;32.53;;;23.80;;
36443;SDS011;24692;45.642;13.806;2024-03-17T07:23:29;31.17;;;23.30;;
36443;SDS011;24692;45.642;13.806;2024-03-17T07:25:55;30.70;;;23.90;;
36443;SDS011;24692;45.642;13.806;2024-03-17T07:28:23;28.88;;;23.08;;
36443;SDS011;24692;45.642;13.806;2024-03-17T07:30:50;28.42;;;22.70;;
36443;SDS011;24692;45.642;13.806;2024-03-17T07:33:17;28.52;;;23.00;;
36443;SDS011;24692;45.642;13.806;2024-03-17T07:38:21;27.17;;;21.67;;
36443;SDS011;24692;45.642;13.806;2024-03-17T07:40:55;30.20;;;24.77;;
36443;SDS011;24692;45.642;13.806;2024-03-17T07:43:29;32.45;;;23.48;;
36443;SDS011;24692;45.642;13.806;2024-03-17T07:46:06;31.33;;;22.40;;
36443;SDS011;24692;45.642;13.806;2024-03-17T07:48:34;30.73;;;23.33;;
36443;SDS011;24692;45.642;13.806;2024-03-17T07:53:36;26.38;;;22.65;;
36443;SDS011;24692;45.642;13.806;2024-03-17T07:58:30;28.20;;;21.55;;
36443;SDS011;24692;45.642;13.806;2024-03-17T08:00:58;28.92;;;22.30;;
36443;SDS011;24692;45.642;13.806;2024-03-17T08:03:25;26.77;;;21.33;;
36443;SDS011;24692;45.642;13.806;2024-03-17T08:05:54;24.10;;;20.58;;
36443;SDS011;24692;45.642;13.806;2024-03-17T08:08:20;25.35;;;20.58;;
36443;SDS011;24692;45.642;13.806;2024-03-17T08:10:46;23.00;;;20.23;;
36443;SDS011;24692;45.642;13.806;2024-03-17T08:13:13;24.33;;;20.63;;
36443;SDS011;24692;45.642;13.806;2024-03-17T08:15:41;25.90;;;20.67;;
36443;SDS011;24692;45.642;13.806;2024-03-17T08:18:07;27.45;;;21.88;;
36443;SDS011;24692;45.642;13.806;2024-03-17T08:20:36;24.55;;;21.95;;
36443;SDS011;24692;45.642;13.806;2024-03-17T08:23:03;26.90;;;20.90;;
36443;SDS011;24692;45.642;13.806;2024-03-17T08:25:29;25.50;;;21.42;;
36443;SDS011;24692;45.642;13.806;2024-03-17T08:27:54;24.65;;;21.23;;
36443;SDS011;24692;45.642;13.806;2024-03-17T08:30:20;25.08;;;22.38;;
36443;SDS011;24692;45.642;13.806;2024-03-17T08:32:45;25.17;;;19.88;;
36443;SDS011;24692;45.642;13.806;2024-03-17T08:35:11;24.75;;;20.90;;
36443;SDS011;24692;45.642;13.806;2024-03-17T08:37:36;28.55;;;21.90;;
36443;SDS011;24692;45.642;13.806;2024-03-17T08:40:02;27.10;;;22.25;;
36443;SDS011;24692;45.642;13.806;2024-03-17T08:42:31;29.02;;;22.67;;
36443;SDS011;24692;45.642;13.806;2024-03-17T08:44:57;29.10;;;23.55;;
36443;SDS011;24692;45.642;13.806;2024-03-17T08:47:22;28.98;;;22.35;;
36443;SDS011;24692;45.642;13.806;2024-03-17T08:49:51;25.42;;;21.40;;
36443;SDS011;24692;45.642;13.806;2024-03-17T08:52:17;25.52;;;20.90;;
36443;SDS011;24692;45.642;13.806;2024-03-17T08:54:46;26.80;;;21.58;;
36443;SDS011;24692;45.642;13.806;2024-03-17T08:57:12;23.58;;;21.08;;
36443;SDS011;24692;45.642;13.806;2024-03-17T08:59:38;28.60;;;22.52;;
36443;SDS011;24692;45.642;13.806;2024-03-17T09:02:04;27.50;;;21.95;;
36443;SDS011;24692;45.642;13.806;2024-03-17T09:04:31;26.50;;;21.30;;
36443;SDS011;24692;45.642;13.806;2024-03-17T09:06:57;28.40;;;22.05;;
36443;SDS011;24692;45.642;13.806;2024-03-17T09:09:23;24.65;;;20.02;;
36443;SDS011;24692;45.642;13.806;2024-03-17T09:11:49;25.70;;;19.90;;
36443;SDS011;24692;45.642;13.806;2024-03-17T09:14:16;22.25;;;18.30;;
36443;SDS011;24692;45.642;13.806;2024-03-17T09:16:41;25.80;;;21.42;;
36443;SDS011;24692;45.642;13.806;2024-03-17T09:19:07;25.75;;;19.45;;
36443;SDS011;24692;45.642;13.806;2024-03-17T09:21:34;23.67;;;20.92;;
36443;SDS011;24692;45.642;13.806;2024-03-17T09:23:59;25.40;;;19.98;;
36443;SDS011;24692;45.642;13.806;2024-03-17T09:26:25;23.90;;;19.73;;
36443;SDS011;24692;45.642;13.806;2024-03-17T09:28:50;25.55;;;21.50;;
36443;SDS011;24692;45.642;13.806;2024-03-17T09:31:16;25.23;;;20.50;;
36443;SDS011;24692;45.642;13.806;2024-03-17T09:33:42;24.10;;;20.23;;
36443;SDS011;24692;45.642;13.806;2024-03-17T09:36:08;27.85;;;21.65;;
36443;SDS011;24692;45.642;13.806;2024-03-17T09:38:38;27.35;;;21.10;;
36443;SDS011;24692;45.642;13.806;2024-03-17T09:41:06;24.02;;;18.73;;
36443;SDS011;24692;45.642;13.806;2024-03-17T09:43:32;21.95;;;18.08;;
36443;SDS011;24692;45.642;13.806;2024-03-17T09:46:01;25.63;;;17.73;;
36443;SDS011;24692;45.642;13.806;2024-03-17T09:48:28;20.42;;;16.58;;
36443;SDS011;24692;45.642;13.806;2024-03-17T09:50:54;20.85;;;17.20;;
36443;SDS011;24692;45.642;13.806;2024-03-17T09:53:28;23.70;;;19.88;;
36443;SDS011;24692;45.642;13.806;2024-03-17T09:55:58;24.52;;;19.20;;
36443;SDS011;24692;45.642;13.806;2024-03-17T09:58:26;24.95;;;18.83;;
36443;SDS011;24692;45.642;13.806;2024-03-17T10:00:52;23.73;;;19.50;;
36443;SDS011;24692;45.642;13.806;2024-03-17T10:06:10;19.38;;;16.92;;
36443;SDS011;24692;45.642;13.806;2024-03-17T10:08:41;22.65;;;18.10;;
36443;SDS011;24692;45.642;13.806;2024-03-17T10:11:07;22.70;;;18.70;;
36443;SDS011;24692;45.642;13.806;2024-03-17T10:13:33;22.17;;;18.92;;
36443;SDS011;24692;45.642;13.806;2024-03-17T10:15:59;22.80;;;18.38;;
36443;SDS011;24692;45.642;13.806;2024-03-17T10:18:25;22.85;;;19.02;;
36443;SDS011;24692;45.642;13.806;2024-03-17T10:20:50;23.75;;;19.73;;
36443;SDS011;24692;45.642;13.806;2024-03-17T10:23:20;22.50;;;19.80;;
36443;SDS011;24692;45.642;13.806;2024-03-17T10:25:46;27.73;;;20.48;;
36443;SDS011;24692;45.642;13.806;2024-03-17T10:28:12;27.45;;;20.98;;
36443;SDS011;24692;45.642;13.806;2024-03-17T10:30:39;26.38;;;19.10;;
36443;SDS011;24692;45.642;13.806;2024-03-17T10:33:05;25.45;;;19.73;;
36443;SDS011;24692;45.642;13.806;2024-03-17T10:35:37;29.23;;;21.33;;
36443;SDS011;24692;45.642;13.806;2024-03-17T10:38:07;24.33;;;20.50;;
36443;SDS011;24692;45.642;13.806;2024-03-17T10:40:34;25.58;;;20.33;;
36443;SDS011;24692;45.642;13.806;2024-03-17T10:43:03;24.88;;;19.90;;
36443;SDS011;24692;45.642;13.806;2024-03-17T10:45:30;26.50;;;19.15;;
36443;SDS011;24692;45.642;13.806;2024-03-17T10:48:07;25.65;;;18.98;;
36443;SDS011;24692;45.642;13.806;2024-03-17T10:50:35;22.17;;;18.42;;
36443;SDS011;24692;45.642;13.806;2024-03-17T10:53:03;22.50;;;18.58;;
36443;SDS011;24692;45.642;13.806;2024-03-17T10:55:58;22.27;;;18.77;;
36443;SDS011;24692;45.642;13.806;2024-03-17T11:00:57;22.58;;;17.95;;
36443;SDS011;24692;45.642;13.806;2024-03-17T11:03:24;25.95;;;19.10;;
36443;SDS011;24692;45.642;13.806;2024-03-17T11:05:50;21.52;;;17.67;;
36443;SDS011;24692;45.642;13.806;2024-03-17T11:08:16;22.75;;;17.65;;
36443;SDS011;24692;45.642;13.806;2024-03-17T11:10:50;25.67;;;17.70;;
36443;SDS011;24692;45.642;13.806;2024-03-17T11:13:26;24.85;;;17.85;;
36443;SDS011;24692;45.642;13.806;2024-03-17T11:15:53;23.42;;;18.80;;
36443;SDS011;24692;45.642;13.806;2024-03-17T11:23:35;26.08;;;16.88;;
36443;SDS011;24692;45.642;13.806;2024-03-17T11:26:03;21.67;;;17.98;;
36443;SDS011;24692;45.642;13.806;2024-03-17T11:29:02;23.98;;;18.40;;
36443;SDS011;24692;45.642;13.806;2024-03-17T11:31:44;20.58;;;16.92;;
36443;SDS011;24692;45.642;13.806;2024-03-17T11:36:57;23.98;;;18.20;;
36443;SDS011;24692;45.642;13.806;2024-03-17T11:42:14;20.92;;;17.58;;
36443;SDS011;24692;45.642;13.806;2024-03-17T11:44:54;26.05;;;19.92;;
36443;SDS011;24692;45.642;13.806;2024-03-17T11:47:32;30.45;;;21.23;;
36443;SDS011;24692;45.642;13.806;2024-03-17T11:50:00;23.58;;;20.17;;
36443;SDS011;24692;45.642;13.806;2024-03-17T11:52:31;25.73;;;18.73;;
36443;SDS011;24692;45.642;13.806;2024-03-17T11:54:56;22.52;;;17.67;;
36443;SDS011;24692;45.642;13.806;2024-03-17T11:57:26;22.70;;;18.33;;
36443;SDS011;24692;45.642;13.806;2024-03-17T11:59:52;22.13;;;17.63;;
36443;SDS011;24692;45.642;13.806;2024-03-17T12:02:26;22.23;;;17.08;;
36443;SDS011;24692;45.642;13.806;2024-03-17T12:04:57;21.90;;;17.38;;
36443;SDS011;24692;45.642;13.806;2024-03-17T12:07:23;20.65;;;16.50;;
36443;SDS011;24692;45.642;13.806;2024-03-17T12:09:52;20.35;;;15.52;;
36443;SDS011;24692;45.642;13.806;2024-03-17T12:14:46;26.30;;;20.02;;
36443;SDS011;24692;45.642;13.806;2024-03-17T12:17:13;26.85;;;21.65;;
36443;SDS011;24692;45.642;13.806;2024-03-17T12:19:41;30.15;;;22.50;;
36443;SDS011;24692;45.642;13.806;2024-03-17T12:22:14;31.65;;;23.85;;
36443;SDS011;24692;45.642;13.806;2024-03-17T12:24:47;27.73;;;23.08;;
36443;SDS011;24692;45.642;13.806;2024-03-17T12:27:16;30.90;;;23.50;;
36443;SDS011;24692;45.642;13.806;2024-03-17T12:29:50;30.27;;;23.83;;
36443;SDS011;24692;45.642;13.806;2024-03-17T12:32:20;29.45;;;21.90;;
36443;SDS011;24692;45.642;13.806;2024-03-17T12:34:51;28.58;;;20.65;;
36443;SDS011;24692;45.642;13.806;2024-03-17T12:37:25;27.42;;;21.63;;
36443;SDS011;24692;45.642;13.806;2024-03-17T12:39:58;29.75;;;21.70;;
36443;SDS011;24692;45.642;13.806;2024-03-17T12:42:25;32.30;;;23.52;;
36443;SDS011;24692;45.642;13.806;2024-03-17T12:47:22;26.55;;;21.10;;
36443;SDS011;24692;45.642;13.806;2024-03-17T12:49:50;29.30;;;21.98;;
36443;SDS011;24692;45.642;13.806;2024-03-17T12:54:59;25.30;;;21.92;;
36443;SDS011;24692;45.642;13.806;2024-03-17T12:57:48;28.58;;;22.75;;
36443;SDS011;24692;45.642;13.806;2024-03-17T13:00:33;31.40;;;22.83;;
36443;SDS011;24692;45.642;13.806;2024-03-17T13:05:31;32.50;;;25.75;;
36443;SDS011;24692;45.642;13.806;2024-03-17T13:07:57;28.07;;;22.47;;
36443;SDS011;24692;45.642;13.806;2024-03-17T13:10:26;29.15;;;23.02;;
36443;SDS011;24692;45.642;13.806;2024-03-17T13:13:03;27.27;;;21.90;;
36443;SDS011;24692;45.642;13.806;2024-03-17T13:15:30;35.10;;;24.92;;
36443;SDS011;24692;45.642;13.806;2024-03-17T13:17:57;35.70;;;27.30;;
36443;SDS011;24692;45.642;13.806;2024-03-17T13:20:23;40.20;;;29.20;;
36443;SDS011;24692;45.642;13.806;2024-03-17T13:22:49;35.05;;;27.60;;
36443;SDS011;24692;45.642;13.806;2024-03-17T13:25:15;33.55;;;25.58;;
36443;SDS011;24692;45.642;13.806;2024-03-17T13:27:45;33.78;;;27.17;;
36443;SDS011;24692;45.642;13.806;2024-03-17T13:30:12;31.08;;;24.95;;
36443;SDS011;24692;45.642;13.806;2024-03-17T13:32:38;34.83;;;25.35;;
36443;SDS011;24692;45.642;13.806;2024-03-17T13:35:08;31.92;;;24.15;;
36443;SDS011;24692;45.642;13.806;2024-03-17T13:37:46;32.35;;;25.17;;
36443;SDS011;24692;45.642;13.806;2024-03-17T13:40:13;34.97;;;25.65;;
36443;SDS011;24692;45.642;13.806;2024-03-17T13:42:51;33.42;;;26.20;;
36443;SDS011;24692;45.642;13.806;2024-03-17T13:45:19;30.90;;;22.45;;
36443;SDS011;24692;45.642;13.806;2024-03-17T13:47:54;33.05;;;25.25;;
36443;SDS011;24692;45.642;13.806;2024-03-17T13:50:22;31.60;;;24.08;;
36443;SDS011;24692;45.642;13.806;2024-03-17T13:52:47;33.90;;;25.42;;
36443;SDS011;24692;45.642;13.806;2024-03-17T13:55:15;37.13;;;25.75;;
36443;SDS011;24692;45.642;13.806;2024-03-17T13:57:43;37.85;;;27.55;;
36443;SDS011;24692;45.642;13.806;2024-03-17T14:00:13;33.83;;;25.63;;
36443;SDS011;24692;45.642;13.806;2024-03-17T14:02:44;35.38;;;25.67;;
36443;SDS011;24692;45.642;13.806;2024-03-17T14:05:16;35.30;;;26.77;;
36443;SDS011;24692;45.642;13.806;2024-03-17T14:07:42;33.45;;;25.50;;
36443;SDS011;24692;45.642;13.806;2024-03-17T14:10:09;39.13;;;29.00;;
36443;SDS011;24692;45.642;13.806;2024-03-17T14:12:36;35.17;;;26.70;;
36443;SDS011;24692;45.642;13.806;2024-03-17T14:15:08;37.90;;;28.33;;
36443;SDS011;24692;45.642;13.806;2024-03-17T14:17:43;36.47;;;26.77;;
36443;SDS011;24692;45.642;13.806;2024-03-17T14:20:10;33.87;;;24.70;;
36443;SDS011;24692;45.642;13.806;2024-03-17T14:22:42;32.20;;;23.35;;
36443;SDS011;24692;45.642;13.806;2024-03-17T14:25:10;35.53;;;26.70;;
36443;SDS011;24692;45.642;13.806;2024-03-17T14:27:42;30.73;;;22.95;;
36443;SDS011;24692;45.642;13.806;2024-03-17T14:30:10;34.92;;;25.60;;
36443;SDS011;24692;45.642;13.806;2024-03-17T14:32:40;33.80;;;23.83;;
36443;SDS011;24692;45.642;13.806;2024-03-17T14:35:08;29.58;;;22.98;;
36443;SDS011;24692;45.642;13.806;2024-03-17T14:37:41;36.00;;;27.00;;
36443;SDS011;24692;45.642;13.806;2024-03-17T14:40:12;33.65;;;24.90;;
36443;SDS011;24692;45.642;13.806;2024-03-17T14:42:54;31.25;;;23.85;;
36443;SDS011;24692;45.642;13.806;2024-03-17T14:45:21;29.98;;;22.50;;
36443;SDS011;24692;45.642;13.806;2024-03-17T14:47:49;30.00;;;22.13;;